createdAt,value
2018-05-29T00:00:12.763Z,6.80
2018-05-29T00:02:40.239Z,6.27
2018-05-29T00:05:07.871Z,7.43
2018-05-29T00:07:36.248Z,5.77
2018-05-29T00:10:03.731Z,6.60
2018-05-29T00:12:31.235Z,6.03
2018-05-29T00:14:58.711Z,6.80
2018-05-29T00:17:26.208Z,5.43
2018-05-29T00:19:53.688Z,6.43
2018-05-29T00:22:21.202Z,6.03
2018-05-29T00:24:48.684Z,6.40
2018-05-29T00:27:16.219Z,5.93
2018-05-29T00:29:43.705Z,6.80
2018-05-29T00:32:11.218Z,6.30
2018-05-29T00:34:38.704Z,6.37
2018-05-29T00:37:06.180Z,6.47
2018-05-29T00:39:33.686Z,6.30
2018-05-29T00:42:01.971Z,6.80
2018-05-29T00:44:30.239Z,6.50
2018-05-29T00:46:57.950Z,6.37
2018-05-29T00:49:25.471Z,6.40
2018-05-29T00:51:53.768Z,5.70
2018-05-29T00:54:21.267Z,6.20
2018-05-29T00:56:48.735Z,7.23
2018-05-29T00:59:16.259Z,6.80
2018-05-29T01:01:43.750Z,6.33
2018-05-29T01:04:12.016Z,6.80
2018-05-29T01:06:39.505Z,6.10
2018-05-29T01:09:07.027Z,6.90
2018-05-29T01:11:34.511Z,6.40
2018-05-29T01:14:01.998Z,7.47
2018-05-29T01:16:29.482Z,6.43
2018-05-29T01:18:56.965Z,6.90
2018-05-29T01:21:24.463Z,6.43
2018-05-29T01:23:52.705Z,6.67
2018-05-29T01:26:20.204Z,7.70
2018-05-29T01:28:48.476Z,7.57
2018-05-29T01:31:16.722Z,7.53
2018-05-29T01:33:44.223Z,7.40
2018-05-29T01:36:11.709Z,6.70
2018-05-29T01:38:39.311Z,6.73
2018-05-29T01:41:06.782Z,6.70
2018-05-29T01:43:35.038Z,6.30
2018-05-29T01:46:02.719Z,6.30
2018-05-29T01:48:30.195Z,5.90
2018-05-29T01:50:58.468Z,6.40
2018-05-29T01:53:26.003Z,6.97
2018-05-29T01:55:53.535Z,6.40
2018-05-29T01:58:21.003Z,7.17
2018-05-29T02:00:48.507Z,7.40
2018-05-29T02:03:16.759Z,6.60
2018-05-29T02:05:44.252Z,7.10
2018-05-29T02:08:11.743Z,8.50
2018-05-29T02:10:39.230Z,7.70
2018-05-29T02:13:06.712Z,7.47
2018-05-29T02:15:34.976Z,6.30
2018-05-29T02:18:02.446Z,7.00
2018-05-29T02:20:30.715Z,6.90
2018-05-29T02:22:58.968Z,7.07
2018-05-29T02:25:26.473Z,8.00
2018-05-29T02:27:53.952Z,6.77
2018-05-29T02:30:21.451Z,7.07
2018-05-29T02:32:48.940Z,7.83
2018-05-29T02:35:17.217Z,7.67
2018-05-29T02:37:45.461Z,6.97
2018-05-29T02:40:12.974Z,6.33
2018-05-29T02:42:40.447Z,7.70
2018-05-29T02:45:07.957Z,7.80
2018-05-29T02:47:35.457Z,7.30
2018-05-29T02:50:02.934Z,7.77
2018-05-29T02:52:30.433Z,7.87
2018-05-29T02:54:57.936Z,7.67
2018-05-29T02:57:25.412Z,7.93
2018-05-29T02:59:52.914Z,7.80
2018-05-29T03:02:20.380Z,6.33
2018-05-29T03:04:48.626Z,7.70
2018-05-29T03:07:16.127Z,7.23
2018-05-29T03:09:43.646Z,6.97
2018-05-29T03:12:11.147Z,7.80
2018-05-29T03:14:38.638Z,7.53
2018-05-29T03:17:06.131Z,6.73
2018-05-29T03:19:33.611Z,7.80
2018-05-29T03:22:01.879Z,7.13
2018-05-29T03:24:29.346Z,7.57
2018-05-29T03:26:58.005Z,7.17
2018-05-29T03:29:25.477Z,6.53
2018-05-29T03:31:52.958Z,7.27
2018-05-29T03:34:21.222Z,7.60
2018-05-29T03:36:49.485Z,6.20
2018-05-29T03:39:16.983Z,8.57
2018-05-29T03:41:44.472Z,6.80
2018-05-29T03:44:11.980Z,7.33
2018-05-29T03:46:40.219Z,6.90
2018-05-29T03:49:07.720Z,7.50
2018-05-29T03:51:35.969Z,6.47
2018-05-29T03:54:03.473Z,8.03
2018-05-29T03:56:30.960Z,7.43
2018-05-29T03:58:59.111Z,8.87
2018-05-29T04:01:26.605Z,8.03
2018-05-29T04:03:54.102Z,8.00
2018-05-29T04:06:22.347Z,9.27
2018-05-29T04:08:49.858Z,8.13
2018-05-29T04:11:17.441Z,9.83
2018-05-29T04:13:44.924Z,7.50
2018-05-29T04:16:13.379Z,8.13
2018-05-29T04:18:40.866Z,8.30
2018-05-29T04:21:08.392Z,7.80
2018-05-29T04:23:35.868Z,7.57
2018-05-29T04:26:03.384Z,7.33
2018-05-29T04:28:31.628Z,8.77
2018-05-29T04:30:59.153Z,7.63
2018-05-29T04:33:26.634Z,7.50
2018-05-29T04:35:54.143Z,8.40
2018-05-29T04:38:21.644Z,8.70
2018-05-29T04:40:49.171Z,9.10
2018-05-29T04:43:16.667Z,9.30
2018-05-29T04:45:44.155Z,7.93
2018-05-29T04:48:12.476Z,8.47
2018-05-29T04:50:39.959Z,7.90
2018-05-29T04:53:07.455Z,7.90
2018-05-29T04:55:35.693Z,8.63
2018-05-29T04:58:03.193Z,9.20
2018-05-29T05:00:31.445Z,8.00
2018-05-29T05:02:58.940Z,8.53
2018-05-29T05:05:27.592Z,8.33
2018-05-29T05:07:55.093Z,8.60
2018-05-29T05:10:22.582Z,9.90
2018-05-29T05:12:50.056Z,8.47
2018-05-29T05:15:17.568Z,7.83
2018-05-29T05:17:45.043Z,9.50
2018-05-29T05:20:12.561Z,9.17
2018-05-29T05:22:40.039Z,8.97
2018-05-29T05:25:08.307Z,8.70
2018-05-29T05:27:36.553Z,9.30
2018-05-29T05:30:04.065Z,8.80
2018-05-29T05:32:31.823Z,9.87
2018-05-29T05:34:59.336Z,8.70
2018-05-29T05:37:26.812Z,9.10
2018-05-29T05:39:55.094Z,9.07
2018-05-29T05:42:22.567Z,9.30
2018-05-29T05:44:50.815Z,8.23
2018-05-29T05:47:18.317Z,8.50
2018-05-29T05:49:45.823Z,8.60
2018-05-29T05:52:13.295Z,8.10
2018-05-29T05:54:41.774Z,8.90
2018-05-29T05:57:09.263Z,9.17
2018-05-29T05:59:37.506Z,8.10
2018-05-29T06:02:06.510Z,8.40
2018-05-29T06:04:33.975Z,7.50
2018-05-29T06:07:01.456Z,8.20
2018-05-29T06:09:29.758Z,8.20
2018-05-29T06:11:57.257Z,8.93
2018-05-29T06:14:24.744Z,9.27
2018-05-29T06:16:53.019Z,7.67
2018-05-29T06:19:21.262Z,7.80
2018-05-29T06:21:48.784Z,8.40
2018-05-29T06:24:17.032Z,8.17
2018-05-29T06:26:45.294Z,8.40
2018-05-29T06:29:12.769Z,7.87
2018-05-29T06:31:41.033Z,7.50
2018-05-29T06:34:08.524Z,8.10
2018-05-29T06:36:36.011Z,8.77
2018-05-29T06:39:03.507Z,7.97
2018-05-29T06:41:31.007Z,7.97
2018-05-29T06:43:58.485Z,7.60
2018-05-29T06:46:25.997Z,8.47
2018-05-29T06:48:54.258Z,7.93
2018-05-29T06:51:21.748Z,6.80
2018-05-29T06:53:49.224Z,7.20
2018-05-29T06:56:16.718Z,7.20
2018-05-29T06:58:44.195Z,6.90
2018-05-29T07:01:11.681Z,6.73
2018-05-29T07:03:39.183Z,8.13
2018-05-29T07:06:06.681Z,7.20
2018-05-29T07:08:34.939Z,8.10
2018-05-29T07:11:02.432Z,7.80
2018-05-29T07:13:29.940Z,7.20
2018-05-29T07:15:57.469Z,7.60
2018-05-29T07:18:24.963Z,8.20
2018-05-29T07:20:52.444Z,8.40
2018-05-29T07:23:19.955Z,8.37
2018-05-29T07:25:47.442Z,8.30
2018-05-29T07:28:14.939Z,7.23
2018-05-29T07:30:43.241Z,7.47
2018-05-29T07:33:10.750Z,8.83
2018-05-29T07:35:38.240Z,7.50
2018-05-29T07:38:06.527Z,7.80
2018-05-29T07:40:34.743Z,8.20
2018-05-29T07:43:02.219Z,7.60
2018-05-29T07:45:29.714Z,7.20
2018-05-29T07:47:57.225Z,8.50
2018-05-29T07:50:24.717Z,7.20
2018-05-29T07:52:53.033Z,7.00
2018-05-29T07:55:20.527Z,7.53
2018-05-29T07:57:48.012Z,7.20
2018-05-29T08:00:16.289Z,9.10
2018-05-29T08:02:44.527Z,7.53
2018-05-29T08:05:12.031Z,8.23
2018-05-29T08:07:40.267Z,8.57
2018-05-29T08:10:07.779Z,7.77
2018-05-29T08:12:35.245Z,8.27
2018-05-29T08:15:02.744Z,8.43
2018-05-29T08:17:30.297Z,8.60
2018-05-29T08:19:57.813Z,8.27
2018-05-29T08:22:26.054Z,9.30
2018-05-29T08:24:53.533Z,7.77
2018-05-29T08:27:21.806Z,8.23
2018-05-29T08:29:50.047Z,7.93
2018-05-29T08:32:17.549Z,9.33
2018-05-29T08:34:45.796Z,9.63
2018-05-29T08:37:13.289Z,9.30
2018-05-29T08:39:41.587Z,8.50
2018-05-29T08:42:09.061Z,9.27
2018-05-29T08:44:36.541Z,9.00
2018-05-29T08:47:04.053Z,8.90
2018-05-29T08:49:31.512Z,8.93
2018-05-29T08:51:59.018Z,8.60
2018-05-29T08:54:26.525Z,8.63
2018-05-29T08:56:54.786Z,8.97
2018-05-29T08:59:23.106Z,7.40
2018-05-29T09:01:50.609Z,8.40
2018-05-29T09:04:18.188Z,9.20
2018-05-29T09:06:45.645Z,9.10
2018-05-29T09:09:13.913Z,9.70
2018-05-29T09:11:41.427Z,7.50
2018-05-29T09:14:08.940Z,7.80
2018-05-29T09:16:36.421Z,7.80
2018-05-29T09:19:04.062Z,8.87
2018-05-29T09:21:32.305Z,8.77
2018-05-29T09:23:59.811Z,9.20
2018-05-29T09:26:27.324Z,9.37
2018-05-29T09:28:54.847Z,9.27
2018-05-29T09:31:22.327Z,7.07
2018-05-29T09:33:49.800Z,8.00
2018-05-29T09:36:17.295Z,8.30
2018-05-29T09:38:44.795Z,8.10
2018-05-29T09:41:12.275Z,6.97
2018-05-29T09:43:39.773Z,6.53
2018-05-29T09:46:08.057Z,7.10
2018-05-29T09:48:36.297Z,6.17
2018-05-29T09:51:03.788Z,6.10
2018-05-29T09:53:32.066Z,6.23
2018-05-29T09:56:00.329Z,7.00
2018-05-29T09:58:27.818Z,6.57
2018-05-29T10:00:55.310Z,6.30
2018-05-29T10:03:22.803Z,5.70
2018-05-29T10:05:50.301Z,5.53
2018-05-29T10:08:17.798Z,5.07
2018-05-29T10:10:45.273Z,6.10
2018-05-29T10:13:12.808Z,6.53
2018-05-29T10:15:40.236Z,5.83
2018-05-29T10:18:07.734Z,6.90
2018-05-29T10:20:35.220Z,5.10
2018-05-29T10:23:03.464Z,9.77
2018-05-29T10:25:31.006Z,5.37
2018-05-29T10:27:58.480Z,5.73
2018-05-29T10:30:25.987Z,5.13
2018-05-29T10:32:54.221Z,5.30
2018-05-29T10:35:21.723Z,5.50
2018-05-29T10:37:49.403Z,5.50
2018-05-29T10:40:16.913Z,6.30
2018-05-29T10:42:44.400Z,5.97
2018-05-29T10:45:12.665Z,5.90
2018-05-29T10:47:40.904Z,5.97
2018-05-29T10:50:08.413Z,6.30
2018-05-29T10:52:36.683Z,5.57
2018-05-29T10:55:04.216Z,5.70
2018-05-29T10:57:32.505Z,6.13
2018-05-29T10:59:59.987Z,5.17
2018-05-29T11:02:27.497Z,5.57
2018-05-29T11:04:54.980Z,5.47
2018-05-29T11:07:22.489Z,5.33
2018-05-29T11:09:49.971Z,5.43
2018-05-29T11:12:17.481Z,5.60
2018-05-29T11:14:45.740Z,5.20
2018-05-29T11:17:13.988Z,5.20
2018-05-29T11:19:41.482Z,7.20
2018-05-29T11:22:09.760Z,5.33
2018-05-29T11:24:38.029Z,5.80
2018-05-29T11:27:05.520Z,5.77
2018-05-29T11:29:33.038Z,6.03
2018-05-29T11:32:00.539Z,5.90
2018-05-29T11:34:28.046Z,5.17
2018-05-29T11:36:55.522Z,6.37
2018-05-29T11:39:23.050Z,5.67
2018-05-29T11:41:50.533Z,4.77
2018-05-29T11:44:18.039Z,4.60
2018-05-29T11:46:45.515Z,5.80
2018-05-29T11:49:13.009Z,5.40
2018-05-29T11:51:40.493Z,4.60
2018-05-29T11:54:08.775Z,5.00
2018-05-29T11:56:37.020Z,5.47
2018-05-29T11:59:04.502Z,5.33
2018-05-29T12:01:32.755Z,4.33
2018-05-29T12:04:01.089Z,5.03
2018-05-29T12:06:28.582Z,4.80
2018-05-29T12:08:56.059Z,4.33
2018-05-29T12:11:23.557Z,4.90
2018-05-29T12:13:51.023Z,3.77
2018-05-29T12:16:18.523Z,4.07
2018-05-29T12:18:45.987Z,4.70
2018-05-29T12:21:13.470Z,5.30
2018-05-29T12:23:41.705Z,5.50
2018-05-29T12:26:09.220Z,5.23
2018-05-29T12:28:36.690Z,6.33
2018-05-29T12:31:04.203Z,5.47
2018-05-29T12:33:31.693Z,5.77
2018-05-29T12:35:59.190Z,5.50
2018-05-29T12:38:28.212Z,6.53
2018-05-29T12:40:55.725Z,6.30
2018-05-29T12:43:23.228Z,5.47
2018-05-29T12:45:50.777Z,5.57
2018-05-29T12:48:18.253Z,5.47
2018-05-29T12:50:45.741Z,6.20
2018-05-29T12:53:13.279Z,6.07
2018-05-29T12:55:40.723Z,5.17
2018-05-29T12:58:08.220Z,6.17
2018-05-29T13:00:35.706Z,4.97
2018-05-29T13:03:03.200Z,5.43
2018-05-29T13:05:30.718Z,5.30
2018-05-29T13:07:58.953Z,7.60
2018-05-29T13:10:26.433Z,6.70
2018-05-29T13:12:54.711Z,6.80
2018-05-29T13:15:22.195Z,7.50
2018-05-29T13:17:49.748Z,8.17
2018-05-29T13:20:17.254Z,8.77
2018-05-29T13:22:44.732Z,8.93
2018-05-29T13:25:13.007Z,9.80
2018-05-29T13:27:41.280Z,9.17
2018-05-29T13:30:08.881Z,12.10
2018-05-29T13:32:36.439Z,11.77
2018-05-29T13:35:04.676Z,13.00
2018-05-29T13:37:32.924Z,11.00
2018-05-29T13:40:00.455Z,12.87
2018-05-29T13:42:27.965Z,10.87
2018-05-29T13:44:55.487Z,10.80
2018-05-29T13:47:22.975Z,14.27
2018-05-29T13:49:50.473Z,14.53
2018-05-29T13:52:18.008Z,12.37
2018-05-29T13:54:46.264Z,12.80
2018-05-29T13:57:13.775Z,11.27
2018-05-29T13:59:41.281Z,12.63
2018-05-29T14:02:08.904Z,13.47
2018-05-29T14:04:36.391Z,11.80
2018-05-29T14:07:03.912Z,11.13
2018-05-29T14:09:31.394Z,10.90
2018-05-29T14:11:58.877Z,11.57
2018-05-29T14:14:27.887Z,7.97
2018-05-29T14:16:55.449Z,9.30
2018-05-29T14:19:22.946Z,9.43
2018-05-29T14:21:50.464Z,8.40
2018-05-29T14:24:18.703Z,9.20
2018-05-29T14:26:46.173Z,8.53
2018-05-29T14:29:13.685Z,10.50
2018-05-29T14:31:41.918Z,8.17
2018-05-29T14:34:09.455Z,9.67
2018-05-29T14:36:36.932Z,9.40
2018-05-29T14:39:07.169Z,8.87
2018-05-29T14:41:34.645Z,9.97
2018-05-29T14:44:02.996Z,9.47
2018-05-29T14:46:30.463Z,9.20
2018-05-29T14:48:57.951Z,9.03
2018-05-29T14:51:26.256Z,9.67
2018-05-29T14:53:53.742Z,11.03
2018-05-29T14:56:21.256Z,9.60
2018-05-29T14:58:48.741Z,9.40
2018-05-29T15:01:16.236Z,10.17
2018-05-29T15:03:43.756Z,8.67
2018-05-29T15:06:11.254Z,8.70
2018-05-29T15:08:38.746Z,9.93
2018-05-29T15:11:06.262Z,9.80
2018-05-29T15:13:33.766Z,9.80
2018-05-29T15:16:02.055Z,8.07
2018-05-29T15:18:29.586Z,8.70
2018-05-29T15:20:57.102Z,10.03
2018-05-29T15:23:24.622Z,11.07
2018-05-29T15:25:52.896Z,11.13
2018-05-29T15:28:21.160Z,11.47
2018-05-29T15:30:49.440Z,9.80
2018-05-29T15:33:17.755Z,11.10
2018-05-29T15:35:45.398Z,9.33
2018-05-29T15:38:12.975Z,10.87
2018-05-29T15:40:40.502Z,8.20
2018-05-29T15:43:07.950Z,9.93
2018-05-29T15:45:35.455Z,8.73
2018-05-29T15:48:02.977Z,9.97
2018-05-29T15:50:31.221Z,8.03
2018-05-29T15:52:58.716Z,7.67
2018-05-29T15:55:26.971Z,8.30
2018-05-29T15:57:54.469Z,10.50
2018-05-29T16:00:21.943Z,9.63
2018-05-29T16:02:49.451Z,7.70
2018-05-29T16:05:16.946Z,8.27
2018-05-29T16:07:44.485Z,6.90
2018-05-29T16:10:12.727Z,7.30
2018-05-29T16:12:40.233Z,6.57
2018-05-29T16:15:08.502Z,5.97
2018-05-29T16:17:36.746Z,6.67
2018-05-29T16:20:04.272Z,6.30
2018-05-29T16:22:31.740Z,7.37
2018-05-29T16:24:59.230Z,6.50
2018-05-29T16:27:26.715Z,6.67
2018-05-29T16:29:54.987Z,5.63
2018-05-29T16:32:23.229Z,5.10
2018-05-29T16:34:50.754Z,5.30
2018-05-29T16:37:18.244Z,5.37
2018-05-29T16:39:45.758Z,6.07
2018-05-29T16:42:14.029Z,5.70
2018-05-29T16:44:42.341Z,6.10
2018-05-29T16:47:09.828Z,5.50
2018-05-29T16:49:37.331Z,6.00
2018-05-29T16:52:05.560Z,6.20
2018-05-29T16:54:33.084Z,5.23
2018-05-29T16:57:00.551Z,5.20
2018-05-29T16:59:28.052Z,5.00
2018-05-29T17:01:55.565Z,5.30
2018-05-29T17:04:23.092Z,5.53
2018-05-29T17:06:50.558Z,5.03
2018-05-29T17:09:18.842Z,4.90
2018-05-29T17:11:46.348Z,5.07
2018-05-29T17:14:13.825Z,4.83
2018-05-29T17:16:41.333Z,4.60
2018-05-29T17:19:08.812Z,4.90
2018-05-29T17:21:36.311Z,4.70
2018-05-29T17:24:03.821Z,4.47
2018-05-29T17:26:31.320Z,4.57
2018-05-29T17:28:58.799Z,4.90
2018-05-29T17:31:27.051Z,4.90
2018-05-29T17:33:56.032Z,5.27
2018-05-29T17:36:23.541Z,5.43
2018-05-29T17:38:51.793Z,5.30
2018-05-29T17:41:19.291Z,5.40
2018-05-29T17:43:46.788Z,4.80
2018-05-29T17:46:14.275Z,5.60
2018-05-29T17:48:42.523Z,5.60
2018-05-29T17:51:10.007Z,6.40
2018-05-29T17:53:38.631Z,5.93
2018-05-29T17:56:06.500Z,5.70
2018-05-29T17:58:34.017Z,5.37
2018-05-29T18:01:01.723Z,6.17
2018-05-29T18:03:29.386Z,6.57
2018-05-29T18:05:56.912Z,6.00
2018-05-29T18:08:25.211Z,5.87
2018-05-29T18:10:52.708Z,6.30
2018-05-29T18:13:20.196Z,6.77
2018-05-29T18:15:48.013Z,6.20
2018-05-29T18:18:15.597Z,5.83
2018-05-29T18:20:43.112Z,6.80
2018-05-29T18:23:11.386Z,6.90
2018-05-29T18:25:38.883Z,6.87
2018-05-29T18:28:06.628Z,7.00
2018-05-29T18:30:34.236Z,6.57
2018-05-29T18:33:01.748Z,7.00
2018-05-29T18:35:29.267Z,6.40
2018-05-29T18:37:57.581Z,7.07
2018-05-29T18:40:25.104Z,6.70
2018-05-29T18:42:52.636Z,7.47
2018-05-29T18:45:20.146Z,7.87
2018-05-29T18:47:48.411Z,6.87
2018-05-29T18:50:16.894Z,7.97
2018-05-29T18:52:44.383Z,7.77
2018-05-29T18:55:11.885Z,7.53
2018-05-29T18:57:39.427Z,7.80
2018-05-29T19:00:07.058Z,9.80
2018-05-29T19:02:34.613Z,7.80
2018-05-29T19:05:02.113Z,9.30
2018-05-29T19:07:29.697Z,9.57
2018-05-29T19:09:58.045Z,9.40
2018-05-29T19:12:25.583Z,7.40
2018-05-29T19:14:53.073Z,9.43
2018-05-29T19:17:20.599Z,8.20
2018-05-29T19:19:48.108Z,8.90
2018-05-29T19:22:16.428Z,8.10
2018-05-29T19:24:43.921Z,8.37
2018-05-29T19:27:11.428Z,8.40
2018-05-29T19:29:39.677Z,9.63
2018-05-29T19:32:07.183Z,9.70
2018-05-29T19:34:34.663Z,9.00
2018-05-29T19:37:02.166Z,10.63
2018-05-29T19:39:30.420Z,8.60
2018-05-29T19:41:57.978Z,9.60
2018-05-29T19:44:25.476Z,8.63
2018-05-29T19:46:53.764Z,8.90
2018-05-29T19:49:22.023Z,9.47
2018-05-29T19:51:50.299Z,8.10
2018-05-29T19:54:19.482Z,8.30
2018-05-29T19:56:47.748Z,8.57
2018-05-29T19:59:15.219Z,8.90
2018-05-29T20:01:42.736Z,8.50
2018-05-29T20:04:10.244Z,8.70
2018-05-29T20:06:38.568Z,8.90
2018-05-29T20:09:06.052Z,9.10
2018-05-29T20:11:33.569Z,9.10
2018-05-29T20:14:01.125Z,9.30
2018-05-29T20:16:28.611Z,9.40
2018-05-29T20:18:56.161Z,9.30
2018-05-29T20:21:23.652Z,10.67
2018-05-29T20:23:51.163Z,9.50
2018-05-29T20:26:18.653Z,10.93
2018-05-29T20:28:46.192Z,10.50
2018-05-29T20:31:13.703Z,10.03
2018-05-29T20:33:41.253Z,9.60
2018-05-29T20:36:08.807Z,10.10
2018-05-29T20:38:36.314Z,9.90
2018-05-29T20:41:03.830Z,9.97
2018-05-29T20:43:32.370Z,10.70
2018-05-29T20:45:59.874Z,9.93
2018-05-29T20:48:27.371Z,10.63
2018-05-29T20:50:55.669Z,11.40
2018-05-29T20:53:23.168Z,9.73
2018-05-29T20:55:50.682Z,9.07
2018-05-29T20:58:18.171Z,9.50
2018-05-29T21:00:45.673Z,9.03
2018-05-29T21:03:13.166Z,9.57
2018-05-29T21:05:40.660Z,9.67
2018-05-29T21:08:08.148Z,9.37
2018-05-29T21:10:35.671Z,10.43
2018-05-29T21:13:03.163Z,9.90
2018-05-29T21:15:30.721Z,8.63
2018-05-29T21:17:58.230Z,9.47
2018-05-29T21:20:25.726Z,8.30
2018-05-29T21:22:53.254Z,8.50
2018-05-29T21:25:20.748Z,9.70
2018-05-29T21:27:48.246Z,8.40
2018-05-29T21:30:16.493Z,8.50
2018-05-29T21:32:44.004Z,8.97
2018-05-29T21:35:11.511Z,9.63
2018-05-29T21:37:39.028Z,12.37
2018-05-29T21:40:06.509Z,10.83
2018-05-29T21:42:34.027Z,12.93
2018-05-29T21:45:01.513Z,12.50
2018-05-29T21:47:29.029Z,10.70
2018-05-29T21:49:57.287Z,10.33
2018-05-29T21:52:24.783Z,9.93
2018-05-29T21:54:52.289Z,9.13
2018-05-29T21:57:19.816Z,10.40
2018-05-29T21:59:47.367Z,10.80
2018-05-29T22:02:14.851Z,11.70
2018-05-29T22:04:42.359Z,12.53
2018-05-29T22:07:10.633Z,10.83
2018-05-29T22:09:38.949Z,13.53
2018-05-29T22:12:06.507Z,15.57
2018-05-29T22:14:34.021Z,15.20
2018-05-29T22:17:01.521Z,15.50
2018-05-29T22:19:29.075Z,15.30
2018-05-29T22:21:56.563Z,15.97
2018-05-29T22:24:24.072Z,15.23
2018-05-29T22:26:52.330Z,13.37
2018-05-29T22:29:19.851Z,12.40
2018-05-29T22:31:47.359Z,11.10
2018-05-29T22:34:15.598Z,11.80
2018-05-29T22:36:43.102Z,11.73
2018-05-29T22:39:11.344Z,11.97
2018-05-29T22:41:38.847Z,11.07
2018-05-29T22:44:06.336Z,12.50
2018-05-29T22:46:33.851Z,12.13
2018-05-29T22:49:02.101Z,12.00
2018-05-29T22:51:29.604Z,12.63
2018-05-29T22:53:57.856Z,11.80
2018-05-29T22:56:27.091Z,11.60
2018-05-29T22:58:54.667Z,11.93
2018-05-29T23:01:22.171Z,11.50
2018-05-29T23:03:49.696Z,12.47
2018-05-29T23:06:17.184Z,11.40
2018-05-29T23:08:44.804Z,11.80
2018-05-29T23:11:12.297Z,12.57
2018-05-29T23:13:39.796Z,13.53
2018-05-29T23:16:08.057Z,14.67
2018-05-29T23:18:36.331Z,14.90
2018-05-29T23:21:04.596Z,14.03
2018-05-29T23:23:32.100Z,12.07
2018-05-29T23:25:59.584Z,13.30
2018-05-29T23:28:27.138Z,12.37
2018-05-29T23:30:54.619Z,13.20
2018-05-29T23:33:22.140Z,13.53
2018-05-29T23:35:49.623Z,12.30
2018-05-29T23:38:17.107Z,12.13
2018-05-29T23:40:44.611Z,13.53
2018-05-29T23:43:12.087Z,12.60
2018-05-29T23:45:39.582Z,13.17
2018-05-29T23:48:07.092Z,13.40
2018-05-29T23:50:34.591Z,16.20
2018-05-29T23:53:02.082Z,14.80
2018-05-29T23:55:30.352Z,14.00
2018-05-29T23:57:57.841Z,15.30
